Time;durP1;ratioP1;P1;durP2;ratioP2;P2;SDS_P1;SDS_P2;PMS_P1;PMS_P2;Temp;Humidity;BMP_temperature;BMP_pressure;BME280_temperature;BME280_humidity;BME280_pressure;Samples;Min_cycle;Max_cycle;Signal;HPM_P1;HPM_P2
2022/03/02 00:00:24;;;;;;;;;;;;;;;5.25;35.01;100857.28;4418583;32;19989;-76
2022/03/02 00:02:51;;;;;;;;;;;;;;;5.21;35.16;100860.50;4438203;32;20496;-80
2022/03/02 00:05:18;;;;;;;;;;;;;;;5.09;35.98;100853.87;4430929;32;19982;-80
2022/03/02 00:07:46;;;;;;;;;;;;;;;5.11;36.37;100854.84;4430953;32;19989;-77
2022/03/02 00:10:14;;;;;;;;;;;;;;;5.23;36.10;100843.47;4426302;32;20075;-75
2022/03/02 00:12:41;;;;;;;;;;;;;;;5.32;35.78;100838.81;4417590;32;20003;-75
2022/03/02 00:15:08;;;;;;;;;;;;;;;5.12;36.89;100846.34;4419929;32;19978;-75
2022/03/02 00:17:35;;;;;;;;;;;;;;;4.85;36.33;100840.59;4415914;32;20024;-78
2022/03/02 00:20:03;;;;;;;;;;;;;;;5.01;37.07;100846.56;4414970;32;20310;-80
2022/03/02 00:22:29;;;;;;;;;;;;;;;4.99;36.93;100846.47;4415931;32;19984;-76
2022/03/02 00:24:56;;;;;;;;;;;;;;;5.13;36.61;100842.97;4424044;32;20052;-78
2022/03/02 00:27:23;;;;;;;;;;;;;;;5.16;36.58;100843.94;4419623;32;19996;-79
2022/03/02 00:29:50;;;;;;;;;;;;;;;5.03;36.46;100845.84;4415761;32;20022;-78
2022/03/02 00:32:17;;;;;;;;;;;;;;;4.81;36.94;100846.34;4416024;32;19970;-80
2022/03/02 00:34:44;;;;;;;;;;;;;;;4.94;35.55;100834.19;4416533;32;20024;-81
2022/03/02 00:37:12;;;;;;;;;;;;;;;5.11;35.35;100838.56;4416350;32;20316;-76
2022/03/02 00:39:40;;;;;;;;;;;;;;;4.93;35.21;100833.31;4422059;32;19992;-76
2022/03/02 00:42:07;;;;;;;;;;;;;;;4.79;35.01;100829.13;4427530;32;19973;-76
2022/03/02 00:44:34;;;;;;;;;;;;;;;4.90;34.81;100822.88;4425137;32;19985;-76
2022/03/02 00:47:02;;;;;;;;;;;;;;;4.93;34.33;100817.94;4421747;32;19978;-77
2022/03/02 00:49:35;;;;;;;;;;;;;;;5.02;34.42;100818.44;4416502;32;19973;-77
2022/03/02 00:52:03;;;;;;;;;;;;;;;4.97;34.65;100809.59;4427580;32;20023;-76
2022/03/02 00:54:30;;;;;;;;;;;;;;;5.05;33.91;100802.31;4424661;32;19977;-79
2022/03/02 00:56:57;;;;;;;;;;;;;;;5.04;33.88;100806.56;4431191;32;20030;-76
2022/03/02 00:59:24;;;;;;;;;;;;;;;5.09;33.56;100794.84;4429488;32;19985;-80
2022/03/02 01:01:51;;;;;;;;;;;;;;;5.11;33.35;100793.25;4415584;32;20311;-77
2022/03/02 01:04:18;;;;;;;;;;;;;;;5.06;33.80;100787.00;4416097;32;20312;-77
2022/03/02 01:06:45;;;;;;;;;;;;;;;4.83;34.57;100795.16;4427113;32;20012;-79
2022/03/02 01:09:11;;;;;;;;;;;;;;;5.10;33.75;100786.34;4427446;32;20046;-80
2022/03/02 01:11:38;;;;;;;;;;;;;;;5.07;34.31;100785.31;4414604;32;20036;-78
2022/03/02 01:14:05;;;;;;;;;;;;;;;4.85;34.99;100783.25;4415558;32;20774;-74
2022/03/02 01:16:33;;;;;;;;;;;;;;;5.00;35.69;100781.53;4436186;32;20451;-77
2022/03/02 01:19:00;;;;;;;;;;;;;;;4.91;34.61;100778.47;4419382;32;20006;-78
2022/03/02 01:21:27;;;;;;;;;;;;;;;4.76;35.03;100777.66;4420751;32;20745;-76
2022/03/02 01:23:56;;;;;;;;;;;;;;;4.77;35.26;100769.16;4423857;32;20150;-77
2022/03/02 01:26:24;;;;;;;;;;;;;;;4.80;35.25;100769.34;4429407;32;20545;-76
2022/03/02 01:28:54;;;;;;;;;;;;;;;4.79;34.80;100765.00;4422358;32;20188;-79
2022/03/02 01:31:24;;;;;;;;;;;;;;;4.77;35.16;100758.91;4421808;32;20353;-78
2022/03/02 01:33:52;;;;;;;;;;;;;;;4.68;35.29;100758.41;4424653;32;20007;-74
2022/03/02 01:36:19;;;;;;;;;;;;;;;4.33;35.67;100755.66;4423569;32;20049;-79
2022/03/02 01:38:45;;;;;;;;;;;;;;;4.58;34.73;100760.47;4415631;32;19985;-78
2022/03/02 01:41:17;;;;;;;;;;;;;;;4.61;34.34;100758.06;4393324;32;19986;-77
2022/03/02 01:43:44;;;;;;;;;;;;;;;4.58;34.66;100757.03;4393627;32;19985;-77
2022/03/02 01:46:11;;;;;;;;;;;;;;;4.51;35.03;100755.81;4414689;32;20414;-76
2022/03/02 01:48:38;;;;;;;;;;;;;;;4.41;35.59;100748.41;4415663;32;19993;-76
2022/03/02 01:51:05;;;;;;;;;;;;;;;4.53;35.34;100743.97;4422646;32;19981;-77
2022/03/02 01:53:32;;;;;;;;;;;;;;;4.44;35.35;100740.88;4433355;32;19997;-77
2022/03/02 01:55:59;;;;;;;;;;;;;;;4.37;35.41;100742.25;4430405;32;19993;-77
2022/03/02 01:58:26;;;;;;;;;;;;;;;4.44;34.83;100735.75;4433092;32;20055;-77
2022/03/02 02:00:53;;;;;;;;;;;;;;;4.20;35.55;100750.66;4440594;32;20318;-77
2022/03/02 02:03:21;;;;;;;;;;;;;;;4.44;35.47;100748.59;4436749;32;19986;-76
2022/03/02 02:05:47;;;;;;;;;;;;;;;4.22;35.01;100745.63;4419403;32;19982;-79
2022/03/02 02:08:15;;;;;;;;;;;;;;;4.32;34.60;100747.91;4426339;32;20008;-77
2022/03/02 02:10:42;;;;;;;;;;;;;;;4.34;34.70;100741.16;4428607;32;20023;-77
2022/03/02 02:13:09;;;;;;;;;;;;;;;4.32;35.03;100737.66;4420853;32;19989;-76
2022/03/02 02:15:36;;;;;;;;;;;;;;;4.41;35.09;100727.91;4431675;32;19982;-79
2022/03/02 02:18:03;;;;;;;;;;;;;;;4.51;34.26;100731.84;4415451;32;19982;-80
2022/03/02 02:20:34;;;;;;;;;;;;;;;4.48;34.58;100730.00;4414814;32;20029;-77
2022/03/02 02:23:01;;;;;;;;;;;;;;;4.18;35.81;100729.19;4418568;32;20278;-77
2022/03/02 02:25:28;;;;;;;;;;;;;;;4.27;35.04;100723.69;4424654;32;20729;-77
2022/03/02 02:27:55;;;;;;;;;;;;;;;4.32;35.20;100732.53;4441768;32;19982;-77
2022/03/02 02:30:21;;;;;;;;;;;;;;;4.22;35.39;100732.81;4437693;32;20308;-74
2022/03/02 02:32:48;;;;;;;;;;;;;;;4.17;35.76;100728.28;4418938;32;19979;-78
2022/03/02 02:35:15;;;;;;;;;;;;;;;4.16;35.18;100733.34;4414989;32;19985;-79
2022/03/02 02:37:42;;;;;;;;;;;;;;;4.13;35.69;100731.50;4427970;32;19993;-76
2022/03/02 02:40:12;;;;;;;;;;;;;;;4.22;35.36;100731.13;4433483;32;19974;-74
2022/03/02 02:42:39;;;;;;;;;;;;;;;4.09;35.83;100733.81;4428780;32;20240;-76
2022/03/02 02:45:06;;;;;;;;;;;;;;;4.08;36.10;100732.91;4415464;32;20082;-76
2022/03/02 02:47:33;;;;;;;;;;;;;;;3.98;36.43;100733.19;4414740;32;20351;-75
2022/03/02 02:50:00;;;;;;;;;;;;;;;3.99;35.96;100732.41;4420492;32;19998;-80
2022/03/02 02:52:27;;;;;;;;;;;;;;;3.76;36.21;100733.62;4417956;32;19974;-77
2022/03/02 02:54:54;;;;;;;;;;;;;;;3.84;35.93;100726.41;4428716;32;20826;-79
2022/03/02 02:57:21;;;;;;;;;;;;;;;3.75;36.25;100733.56;4429927;32;20684;-74
2022/03/02 02:59:47;;;;;;;;;;;;;;;3.94;35.42;100733.81;4441477;32;20462;-80
2022/03/02 03:02:14;;;;;;;;;;;;;;;3.99;35.23;100734.97;4430074;32;19986;-76
2022/03/02 03:04:41;;;;;;;;;;;;;;;3.90;35.66;100737.00;4429996;32;19996;-79
2022/03/02 03:07:08;;;;;;;;;;;;;;;3.98;35.78;100735.75;4427361;32;20342;-77
2022/03/02 03:09:35;;;;;;;;;;;;;;;3.87;36.21;100731.69;4423321;32;19984;-74
2022/03/02 03:12:02;;;;;;;;;;;;;;;3.92;35.82;100730.28;4429575;32;20303;-78
2022/03/02 03:14:29;;;;;;;;;;;;;;;3.86;35.98;100740.16;4440903;32;19989;-75
2022/03/02 03:16:56;;;;;;;;;;;;;;;3.86;35.37;100740.16;4431220;32;19981;-78
2022/03/02 03:19:22;;;;;;;;;;;;;;;3.84;35.94;100746.91;4432039;32;19978;-76
2022/03/02 03:21:49;;;;;;;;;;;;;;;3.87;36.01;100731.69;4432214;32;19981;-82
2022/03/02 03:24:16;;;;;;;;;;;;;;;3.91;35.92;100723.38;4431136;32;20371;-80
2022/03/02 03:26:43;;;;;;;;;;;;;;;3.83;35.97;100730.66;4415041;32;20587;-78
2022/03/02 03:29:11;;;;;;;;;;;;;;;3.80;36.04;100729.56;4436677;32;19985;-75
2022/03/02 03:31:38;;;;;;;;;;;;;;;3.61;36.40;100732.78;4427349;32;19997;-75
2022/03/02 03:34:04;;;;;;;;;;;;;;;3.61;36.00;100738.75;4423442;32;19986;-79
2022/03/02 03:36:31;;;;;;;;;;;;;;;3.62;35.80;100732.84;4416393;32;20036;-80
2022/03/02 03:38:58;;;;;;;;;;;;;;;3.50;35.87;100734.69;4416281;32;19974;-76
2022/03/02 03:41:25;;;;;;;;;;;;;;;3.63;36.06;100732.03;4415594;32;19978;-77
2022/03/02 03:43:52;;;;;;;;;;;;;;;3.59;36.67;100730.09;4416364;32;19990;-78
2022/03/02 03:46:19;;;;;;;;;;;;;;;3.82;36.60;100730.53;4416466;32;20390;-77
2022/03/02 03:48:46;;;;;;;;;;;;;;;3.58;36.51;100733.47;4423019;32;20538;-79
2022/03/02 03:51:12;;;;;;;;;;;;;;;3.71;36.26;100733.38;4416647;32;20020;-78
2022/03/02 03:53:40;;;;;;;;;;;;;;;3.49;36.57;100728.69;4419086;32;20328;-75
2022/03/02 03:56:07;;;;;;;;;;;;;;;3.43;36.81;100722.31;4431544;32;20654;-81
2022/03/02 03:58:34;;;;;;;;;;;;;;;3.50;36.99;100719.31;4431553;32;19982;-79
2022/03/02 04:01:01;;;;;;;;;;;;;;;3.33;37.67;100720.91;4431673;32;19985;-79
2022/03/02 04:03:28;;;;;;;;;;;;;;;3.37;37.71;100729.63;4431694;32;19981;-76
2022/03/02 04:05:55;;;;;;;;;;;;;;;3.59;37.37;100713.88;4425768;32;19986;-75
2022/03/02 04:08:22;;;;;;;;;;;;;;;3.43;37.80;100722.31;4418913;32;19971;-81
2022/03/02 04:10:49;;;;;;;;;;;;;;;3.54;37.60;100716.13;4425556;32;20007;-80
2022/03/02 04:13:16;;;;;;;;;;;;;;;3.43;36.88;100714.66;4416468;32;20377;-75
2022/03/02 04:15:43;;;;;;;;;;;;;;;3.18;37.00;100715.75;4424749;32;19985;-77
2022/03/02 04:18:11;;;;;;;;;;;;;;;3.34;36.98;100716.66;4421406;32;20035;-74
2022/03/02 04:20:38;;;;;;;;;;;;;;;3.29;37.86;100712.94;4416356;32;20008;-79
2022/03/02 04:23:05;;;;;;;;;;;;;;;3.46;37.30;100723.38;4429579;32;20031;-80
2022/03/02 04:25:32;;;;;;;;;;;;;;;3.31;37.72;100716.47;4425607;32;20042;-78
2022/03/02 04:27:59;;;;;;;;;;;;;;;3.34;38.15;100711.53;4430976;32;19982;-76
2022/03/02 04:30:27;;;;;;;;;;;;;;;3.25;37.41;100706.75;4431714;32;20027;-77
2022/03/02 04:32:54;;;;;;;;;;;;;;;3.32;37.37;100713.12;4422555;32;20005;-75
2022/03/02 04:35:21;;;;;;;;;;;;;;;3.33;37.58;100704.69;4416239;32;20353;-77
2022/03/02 04:37:48;;;;;;;;;;;;;;;3.25;37.71;100715.34;4414535;32;20023;-79
2022/03/02 04:40:16;;;;;;;;;;;;;;;3.29;37.71;100705.25;4422702;32;20350;-80
2022/03/02 04:42:43;;;;;;;;;;;;;;;3.03;38.96;100707.16;4427439;32;20004;-76
2022/03/02 04:45:10;;;;;;;;;;;;;;;3.31;38.52;100702.00;4438626;32;19996;-77
2022/03/02 04:47:38;;;;;;;;;;;;;;;3.19;39.19;100693.59;4427314;32;19978;-76
2022/03/02 04:50:06;;;;;;;;;;;;;;;3.23;38.92;100693.91;4422578;32;19978;-79
2022/03/02 04:52:32;;;;;;;;;;;;;;;3.09;39.09;100694.72;4420702;32;20297;-75
2022/03/02 04:55:05;;;;;;;;;;;;;;;3.07;39.46;100691.22;4422421;32;19990;-83
2022/03/02 04:57:40;;;;;;;;;;;;;;;3.06;38.97;100689.44;4415631;32;20464;-82
2022/03/02 05:00:10;;;;;;;;;;;;;;;3.23;38.13;100693.91;4420171;32;20111;-78
2022/03/02 05:02:37;;;;;;;;;;;;;;;3.23;37.91;100693.00;4428290;32;20536;-77
2022/03/02 05:05:05;;;;;;;;;;;;;;;3.20;38.97;100683.47;4423178;32;19989;-76
2022/03/02 05:07:32;;;;;;;;;;;;;;;3.20;39.10;100685.16;4422595;32;19982;-77
2022/03/02 05:09:59;;;;;;;;;;;;;;;3.01;39.11;100678.06;4414170;32;19994;-76
2022/03/02 05:12:26;;;;;;;;;;;;;;;3.09;39.01;100676.84;4419019;32;19981;-78
2022/03/02 05:14:53;;;;;;;;;;;;;;;3.14;38.62;100680.56;4420348;32;20002;-79
2022/03/02 05:17:20;;;;;;;;;;;;;;;3.06;38.13;100692.00;4417627;32;19978;-74
2022/03/02 05:19:46;;;;;;;;;;;;;;;3.14;38.70;100688.22;4422233;32;19989;-77
2022/03/02 05:22:14;;;;;;;;;;;;;;;3.27;38.60;100689.84;4427345;32;20050;-75
2022/03/02 05:24:41;;;;;;;;;;;;;;;3.21;38.28;100690.34;4425899;32;19989;-77
2022/03/02 05:27:08;;;;;;;;;;;;;;;3.33;37.93;100692.75;4419116;32;19974;-76
2022/03/02 05:29:35;;;;;;;;;;;;;;;3.41;38.50;100693.19;4417815;32;20370;-76
2022/03/02 05:32:03;;;;;;;;;;;;;;;3.25;38.66;100689.75;4422536;32;19981;-77
2022/03/02 05:34:30;;;;;;;;;;;;;;;3.20;39.31;100685.16;4415761;32;20031;-76
2022/03/02 05:36:57;;;;;;;;;;;;;;;2.88;39.08;100678.13;4415619;32;20424;-74
2022/03/02 05:39:24;;;;;;;;;;;;;;;2.98;38.94;100680.44;4419414;32;20031;-75
2022/03/02 05:41:51;;;;;;;;;;;;;;;2.95;38.91;100685.38;4433111;32;19994;-74
2022/03/02 05:44:18;;;;;;;;;;;;;;;2.94;39.12;100688.72;4422084;32;20031;-75
2022/03/02 05:46:45;;;;;;;;;;;;;;;2.80;39.90;100690.44;4424314;32;19977;-76
2022/03/02 05:49:15;;;;;;;;;;;;;;;3.11;39.08;100685.50;4415006;32;19978;-75
2022/03/02 05:51:42;;;;;;;;;;;;;;;3.20;39.05;100680.03;4413690;32;19985;-75
2022/03/02 05:54:10;;;;;;;;;;;;;;;3.45;38.63;100683.25;4426455;32;20052;-74
2022/03/02 05:56:37;;;;;;;;;;;;;;;3.57;38.38;100679.59;4420760;32;19993;-78
2022/03/02 05:59:04;;;;;;;;;;;;;;;3.62;38.43;100679.09;4430719;32;20076;-73
2022/03/02 06:01:31;;;;;;;;;;;;;;;3.96;37.66;100681.00;4442084;32;20005;-74
2022/03/02 06:03:59;;;;;;;;;;;;;;;4.10;37.42;100674.94;4430669;32;19981;-74
2022/03/02 06:06:38;;;;;;;;;;;;;;;4.13;37.57;100675.13;4440153;32;19993;-73
2022/03/02 06:09:06;;;;;;;;;;;;;;;4.07;37.60;100674.78;4429487;32;19981;-76
2022/03/02 06:11:33;;;;;;;;;;;;;;;3.86;38.09;100671.00;4421846;32;20307;-73
2022/03/02 06:14:00;;;;;;;;;;;;;;;4.13;37.43;100670.00;4424550;32;20388;-73
2022/03/02 06:16:27;;;;;;;;;;;;;;;4.08;38.03;100675.66;4427797;32;19970;-77
2022/03/02 06:18:54;;;;;;;;;;;;;;;4.31;37.46;100666.69;4420395;32;20012;-74
2022/03/02 06:21:26;;;;;;;;;;;;;;;4.48;36.82;100668.47;4421977;32;19981;-71
2022/03/02 06:23:53;;;;;;;;;;;;;;;4.25;37.89;100674.03;4424841;32;20005;-76
2022/03/02 06:26:22;;;;;;;;;;;;;;;4.48;37.54;100676.16;4436272;32;20419;-77
2022/03/02 06:28:49;;;;;;;;;;;;;;;4.29;37.59;100673.41;4423540;32;20414;-77
2022/03/02 06:31:16;;;;;;;;;;;;;;;4.44;37.57;100671.69;4426839;32;19990;-79
2022/03/02 06:33:44;;;;;;;;;;;;;;;4.36;37.70;100678.06;4427839;32;20016;-73
2022/03/02 06:36:11;;;;;;;;;;;;;;;4.44;37.91;100676.81;4418673;32;19978;-76
2022/03/02 06:38:38;;;;;;;;;;;;;;;4.86;36.97;100667.06;4426162;32;19988;-75
2022/03/02 06:41:12;;;;;;;;;;;;;;;4.80;36.81;100677.87;4415386;32;20027;-74
2022/03/02 06:43:46;;;;;;;;;;;;;;;4.94;36.19;100676.00;4433406;32;20014;-76
2022/03/02 06:46:20;;;;;;;;;;;;;;;5.13;36.50;100681.28;4425384;32;20394;-73
2022/03/02 06:48:51;;;;;;;;;;;;;;;5.39;35.15;100671.47;4425885;32;20729;-77
2022/03/02 06:51:21;;;;;;;;;;;;;;;5.53;35.55;100675.62;4417414;32;20802;-74
2022/03/02 06:53:48;;;;;;;;;;;;;;;5.74;34.95;100670.66;4434345;32;20037;-75
2022/03/02 06:56:15;;;;;;;;;;;;;;;5.70;35.51;100673.00;4429015;32;20287;-73
2022/03/02 06:58:45;;;;;;;;;;;;;;;6.04;34.28;100671.28;4435967;32;19997;-72
2022/03/02 07:01:13;;;;;;;;;;;;;;;6.05;33.94;100673.03;4434029;32;20171;-72
2022/03/02 07:03:42;;;;;;;;;;;;;;;6.14;33.43;100671.72;4401753;32;876911;-73
2022/03/02 07:06:09;;;;;;;;;;;;;;;6.35;34.02;100672.72;4431115;32;20031;-72
2022/03/02 07:08:36;;;;;;;;;;;;;;;6.53;34.51;100658.13;4437974;32;20003;-73
2022/03/02 07:11:02;;;;;;;;;;;;;;;7.02;32.42;100664.59;4437342;32;20028;-73
2022/03/02 07:13:29;;;;;;;;;;;;;;;7.16;32.48;100658.31;4428752;32;19997;-73
2022/03/02 07:15:56;;;;;;;;;;;;;;;7.49;32.20;100657.97;4434011;32;19982;-74
2022/03/02 07:18:23;;;;;;;;;;;;;;;7.77;31.74;100648.81;4427718;32;20335;-74
2022/03/02 07:20:50;;;;;;;;;;;;;;;8.11;31.30;100645.88;4416247;32;20031;-73
2022/03/02 07:23:18;;;;;;;;;;;;;;;8.42;30.60;100641.91;4425160;32;19977;-73
2022/03/02 07:25:45;;;;;;;;;;;;;;;8.82;30.69;100637.37;4419918;32;19986;-74
2022/03/02 07:28:12;;;;;;;;;;;;;;;9.15;29.66;100639.38;4428029;32;20033;-73
2022/03/02 07:30:39;;;;;;;;;;;;;;;9.22;28.71;100636.22;4422858;32;19982;-73
2022/03/02 07:33:07;;;;;;;;;;;;;;;9.18;28.50;100634.34;4431684;32;19982;-74
2022/03/02 07:35:37;;;;;;;;;;;;;;;9.73;28.95;100631.00;4431770;32;20030;-74
2022/03/02 07:38:05;;;;;;;;;;;;;;;9.80;28.31;100626.91;4396266;32;20709;-74
2022/03/02 07:40:32;;;;;;;;;;;;;;;9.97;27.84;100635.19;4373194;32;20070;-74
2022/03/02 07:42:59;;;;;;;;;;;;;;;10.23;28.59;100634.28;4390737;32;19986;-76
2022/03/02 07:45:26;;;;;;;;;;;;;;;10.23;27.38;100629.09;4379452;32;19979;-75
2022/03/02 07:47:53;;;;;;;;;;;;;;;10.27;28.53;100626.63;4384482;32;19986;-75
2022/03/02 07:50:19;;;;;;;;;;;;;;;10.59;27.33;100628.47;4376452;32;19979;-75
2022/03/02 07:52:48;;;;;;;;;;;;;;;10.88;26.60;100620.63;4374809;32;20017;-75
2022/03/02 07:55:15;;;;;;;;;;;;;;;10.87;27.07;100618.88;4379765;32;19974;-75
2022/03/02 07:57:42;;;;;;;;;;;;;;;10.91;27.11;100610.34;4385513;32;19987;-75
2022/03/02 08:00:10;;;;;;;;;;;;;;;11.09;26.63;100616.03;4393465;32;19998;-75
2022/03/02 08:02:38;;;;;;;;;;;;;;;10.33;27.72;100619.06;4393389;32;19979;-74
2022/03/02 08:05:05;;;;;;;;;;;;;;;10.93;26.94;100613.87;4379042;32;20312;-74
2022/03/02 08:07:32;;;;;;;;;;;;;;;10.97;27.17;100620.88;4396632;32;20025;-76
2022/03/02 08:09:59;;;;;;;;;;;;;;;10.93;27.46;100613.87;4396838;32;20035;-76
2022/03/02 08:12:25;;;;;;;;;;;;;;;10.95;27.48;100601.84;4391427;32;20373;-75
2022/03/02 08:14:52;;;;;;;;;;;;;;;11.39;27.33;100599.50;4376859;32;20032;-76
2022/03/02 08:17:19;;;;;;;;;;;;;;;11.45;27.65;100598.78;4394146;32;20320;-75
2022/03/02 08:19:46;;;;;;;;;;;;;;;11.85;26.09;100600.66;4384611;32;20020;-75
2022/03/02 08:22:14;;;;;;;;;;;;;;;11.89;26.16;100592.09;4384398;32;20000;-75
2022/03/02 08:24:43;;;;;;;;;;;;;;;11.71;25.76;100591.62;4395406;32;20034;-75
2022/03/02 08:27:11;;;;;;;;;;;;;;;12.04;26.36;100582.06;4393431;32;20360;-76
2022/03/02 08:29:39;;;;;;;;;;;;;;;12.23;26.42;100577.28;4384424;32;19982;-76
2022/03/02 08:32:06;;;;;;;;;;;;;;;12.45;24.80;100579.47;4397710;32;20717;-75
2022/03/02 08:34:36;;;;;;;;;;;;;;;12.34;25.50;100578.34;4380049;32;19978;-76
2022/03/02 08:37:03;;;;;;;;;;;;;;;12.16;25.78;100571.06;4396076;32;20046;-76
2022/03/02 08:39:30;;;;;;;;;;;;;;;12.29;25.27;100569.63;4393096;32;19986;-76
2022/03/02 08:41:57;;;;;;;;;;;;;;;12.81;25.00;100570.62;4371167;32;20036;-77
2022/03/02 08:44:24;;;;;;;;;;;;;;;12.65;24.26;100566.00;4378205;32;19974;-76
2022/03/02 08:46:51;;;;;;;;;;;;;;;12.77;25.10;100574.03;4380773;32;19991;-77
2022/03/02 08:49:18;;;;;;;;;;;;;;;12.90;23.96;100563.00;4383711;32;19983;-75
2022/03/02 08:51:45;;;;;;;;;;;;;;;12.40;25.55;100557.72;4379281;32;19974;-76
2022/03/02 08:54:15;;;;;;;;;;;;;;;12.34;25.98;100555.00;4391229;32;20487;-76
2022/03/02 08:56:42;;;;;;;;;;;;;;;12.45;24.25;100550.91;4424063;32;19990;-76
2022/03/02 08:59:12;;;;;;;;;;;;;;;12.70;24.53;100548.75;4429002;32;19985;-76
2022/03/02 09:01:41;;;;;;;;;;;;;;;12.71;26.75;100541.00;4421276;32;20846;-75
2022/03/02 09:04:08;;;;;;;;;;;;;;;12.55;24.84;100544.16;4440278;32;20516;-76
2022/03/02 09:06:35;;;;;;;;;;;;;;;12.37;26.12;100539.47;4434510;32;19981;-75
2022/03/02 09:09:03;;;;;;;;;;;;;;;12.07;26.85;100543.19;4434337;32;20135;-74
2022/03/02 09:11:30;;;;;;;;;;;;;;;12.45;24.65;100537.94;4425924;32;20146;-75
2022/03/02 09:13:57;;;;;;;;;;;;;;;12.89;25.14;100537.88;4427380;32;20036;-76
2022/03/02 09:16:24;;;;;;;;;;;;;;;13.06;24.45;100532.09;4414693;32;19974;-76
2022/03/02 09:18:51;;;;;;;;;;;;;;;12.56;26.63;100535.53;4411248;32;20360;-76
2022/03/02 09:21:19;;;;;;;;;;;;;;;12.46;24.94;100534.47;4412784;32;20000;-74
2022/03/02 09:23:46;;;;;;;;;;;;;;;12.96;24.51;100537.12;4421931;32;19997;-74
2022/03/02 09:26:14;;;;;;;;;;;;;;;13.21;25.36;100532.37;4390930;32;19979;-74
2022/03/02 09:28:42;;;;;;;;;;;;;;;13.17;23.56;100525.34;4392678;32;20042;-75
2022/03/02 09:31:10;;;;;;;;;;;;;;;13.03;23.50;100518.19;4395619;32;20405;-75
2022/03/02 09:33:37;;;;;;;;;;;;;;;12.16;27.50;100513.09;4415837;32;19978;-75
2022/03/02 09:36:05;;;;;;;;;;;;;;;12.03;26.88;100518.03;4393797;32;20008;-75
2022/03/02 09:38:33;;;;;;;;;;;;;;;12.96;23.90;100518.94;4400415;32;19978;-74
2022/03/02 09:41:05;;;;;;;;;;;;;;;12.72;23.74;100514.19;4400489;32;19989;-75
2022/03/02 09:43:32;;;;;;;;;;;;;;;12.00;26.31;100517.97;4394527;32;19982;-74
2022/03/02 09:46:02;;;;;;;;;;;;;;;12.64;26.21;100517.50;4384890;32;19991;-76
2022/03/02 09:48:34;;;;;;;;;;;;;;;12.62;27.08;100517.47;4387238;32;19996;-76
2022/03/02 09:51:03;;;;;;;;;;;;;;;12.06;25.34;100517.19;4392099;32;20005;-77
2022/03/02 09:53:30;;;;;;;;;;;;;;;11.95;25.44;100509.22;4400107;32;19978;-76
2022/03/02 09:56:01;;;;;;;;;;;;;;;12.45;24.94;100511.97;4394082;32;20490;-76
2022/03/02 09:58:28;;;;;;;;;;;;;;;13.26;23.42;100509.94;4396065;32;19994;-77
2022/03/02 10:00:56;;;;;;;;;;;;;;;13.37;23.75;100503.19;4395395;32;20005;-76
2022/03/02 10:03:24;;;;;;;;;;;;;;;13.58;23.74;100502.63;4399407;32;20021;-76
2022/03/02 10:05:51;;;;;;;;;;;;;;;13.18;23.55;100506.31;4392864;32;20441;-76
2022/03/02 10:08:19;;;;;;;;;;;;;;;13.35;22.75;100507.47;4403533;32;19986;-77
2022/03/02 10:10:49;;;;;;;;;;;;;;;12.63;24.60;100497.56;4424352;32;20073;-77
2022/03/02 10:13:17;;;;;;;;;;;;;;;12.34;25.52;100492.69;4414976;32;19982;-75
2022/03/02 10:15:44;;;;;;;;;;;;;;;13.05;25.25;100492.25;4390173;32;19986;-75
2022/03/02 10:18:12;;;;;;;;;;;;;;;13.28;24.36;100482.25;4396243;32;20040;-75
2022/03/02 10:20:40;;;;;;;;;;;;;;;13.55;22.62;100480.87;4389156;32;19978;-74
2022/03/02 10:23:26;;;;;;;;;;;;;;;13.45;23.44;100480.75;4388754;32;19974;-75
2022/03/02 10:26:02;;;;;;;;;;;;;;;13.40;23.11;100472.03;4384549;32;19990;-75
2022/03/02 10:28:30;;;;;;;;;;;;;;;13.54;22.65;100468.75;4392960;32;20387;-76
2022/03/02 10:31:00;;;;;;;;;;;;;;;13.49;22.31;100469.53;4397676;32;20382;-75
2022/03/02 10:33:27;;;;;;;;;;;;;;;13.74;22.13;100464.69;4398263;32;19993;-76
2022/03/02 10:36:02;;;;;;;;;;;;;;;13.58;21.76;100463.59;4398627;32;19998;-75
2022/03/02 10:38:39;;;;;;;;;;;;;;;13.58;22.26;100454.91;4399595;32;19986;-75
2022/03/02 10:41:09;;;;;;;;;;;;;;;13.08;21.66;100458.50;4415337;32;19970;-75
2022/03/02 10:43:40;;;;;;;;;;;;;;;12.69;22.96;100453.50;4394512;32;19974;-74
2022/03/02 10:46:08;;;;;;;;;;;;;;;12.33;23.85;100449.41;4395814;32;20386;-74
2022/03/02 10:48:39;;;;;;;;;;;;;;;12.73;23.69;100439.72;4383865;32;19986;-75
2022/03/02 10:51:07;;;;;;;;;;;;;;;12.39;22.74;100444.34;4388286;32;19993;-74
2022/03/02 10:53:35;;;;;;;;;;;;;;;12.83;23.64;100439.03;4391222;32;20374;-74
2022/03/02 10:56:03;;;;;;;;;;;;;;;13.35;23.28;100426.00;4383448;32;19990;-75
2022/03/02 10:58:30;;;;;;;;;;;;;;;13.32;24.36;100426.81;4384625;32;19982;-74
2022/03/02 11:01:00;;;;;;;;;;;;;;;12.97;25.75;100421.94;4407449;32;20574;-76
2022/03/02 11:03:28;;;;;;;;;;;;;;;13.40;23.13;100413.91;4413899;32;19974;-75
2022/03/02 11:05:56;;;;;;;;;;;;;;;13.38;24.43;100411.31;4399648;32;20335;-75
2022/03/02 11:08:24;;;;;;;;;;;;;;;13.60;23.96;100409.00;4404207;32;20096;-76
2022/03/02 11:10:51;;;;;;;;;;;;;;;13.42;23.71;100407.03;4396795;32;19997;-75
2022/03/02 11:13:18;;;;;;;;;;;;;;;13.85;22.44;100405.84;4396165;32;20048;-76
2022/03/02 11:15:47;;;;;;;;;;;;;;;13.76;22.14;100403.13;4386147;32;19997;-76
2022/03/02 11:18:16;;;;;;;;;;;;;;;13.38;22.13;100400.91;4396520;32;20379;-76
2022/03/02 11:20:56;;;;;;;;;;;;;;;13.59;22.63;100402.03;4399192;32;20017;-75
2022/03/02 11:23:23;;;;;;;;;;;;;;;13.66;23.85;100396.09;4397548;32;19974;-75
2022/03/02 11:25:51;;;;;;;;;;;;;;;13.70;22.12;100398.72;4399285;32;19971;-75
2022/03/02 11:28:21;;;;;;;;;;;;;;;13.82;22.19;100386.72;4399180;32;19974;-75
2022/03/02 11:30:49;;;;;;;;;;;;;;;13.23;23.51;100395.47;4397736;32;20016;-76
2022/03/02 11:33:17;;;;;;;;;;;;;;;13.90;22.06;100385.94;4393924;32;19978;-76
2022/03/02 11:35:43;;;;;;;;;;;;;;;13.59;22.40;100378.63;4377547;32;19997;-76
2022/03/02 11:38:12;;;;;;;;;;;;;;;12.54;23.51;100371.91;4386870;32;19994;-76
2022/03/02 11:40:41;;;;;;;;;;;;;;;13.47;23.31;100369.84;4400663;32;19978;-76
2022/03/02 11:43:18;;;;;;;;;;;;;;;13.31;24.74;100373.09;4393911;32;20032;-76
2022/03/02 11:45:50;;;;;;;;;;;;;;;13.65;23.19;100363.09;4400557;32;20047;-76
2022/03/02 11:48:20;;;;;;;;;;;;;;;14.12;21.65;100357.53;4398986;32;20004;-76
2022/03/02 11:51:22;;;;;;;;;;;;;;;13.81;23.96;100365.00;4385099;32;19995;-76
2022/03/02 11:53:53;;;;;;;;;;;;;;;13.83;23.40;100352.91;4371003;32;19974;-75
2022/03/02 11:56:22;;;;;;;;;;;;;;;13.23;24.01;100353.88;4392748;32;20336;-74
2022/03/02 11:59:09;;;;;;;;;;;;;;;13.04;24.73;100348.41;4385105;32;20320;-76
2022/03/02 12:01:51;;;;;;;;;;;;;;;12.81;24.41;100347.19;4386445;32;20049;-75
2022/03/02 12:04:30;;;;;;;;;;;;;;;12.70;25.17;100346.16;4385565;32;19988;-76
2022/03/02 12:06:57;;;;;;;;;;;;;;;12.17;25.37;100343.56;4090820;32;5002054;-75
2022/03/02 12:09:27;;;;;;;;;;;;;;;11.81;26.51;100345.47;4385047;32;20285;-74
2022/03/02 12:12:06;;;;;;;;;;;;;;;12.77;25.38;100337.62;4384578;32;20391;-74
2022/03/02 12:14:40;;;;;;;;;;;;;;;13.32;23.38;100333.22;4386029;32;20293;-77
2022/03/02 12:17:13;;;;;;;;;;;;;;;12.93;24.95;100334.41;4390060;32;19971;-74
2022/03/02 12:19:40;;;;;;;;;;;;;;;13.56;22.22;100323.97;4397208;32;19994;-75
2022/03/02 12:22:10;;;;;;;;;;;;;;;13.45;22.23;100319.50;4400142;32;20020;-74
2022/03/02 12:24:37;;;;;;;;;;;;;;;13.83;21.85;100310.41;4408894;32;20013;-74
2022/03/02 12:27:08;;;;;;;;;;;;;;;13.83;21.93;100315.59;4400124;32;19986;-74
2022/03/02 12:29:36;;;;;;;;;;;;;;;13.83;22.35;100311.28;4407465;32;20005;-76
2022/03/02 12:32:03;;;;;;;;;;;;;;;13.35;24.82;100307.25;4409591;32;20379;-74
2022/03/02 12:34:35;;;;;;;;;;;;;;;12.81;23.97;100308.22;4398402;32;19982;-74
2022/03/02 12:37:02;;;;;;;;;;;;;;;13.85;21.49;100299.16;4398836;32;19983;-76
2022/03/02 12:39:30;;;;;;;;;;;;;;;13.90;21.67;100296.59;4399889;32;20805;-74
2022/03/02 12:41:57;;;;;;;;;;;;;;;13.73;21.61;100291.22;4395353;32;19983;-74
2022/03/02 12:44:25;;;;;;;;;;;;;;;13.93;21.78;100297.50;4403842;32;20024;-75
2022/03/02 12:46:53;;;;;;;;;;;;;;;14.06;20.89;100295.00;4386295;32;20013;-74